Time;durP1;ratioP1;P1;durP2;ratioP2;P2;SDS_P1;SDS_P2;PMS_P1;PMS_P2;Temp;Humidity;BMP_temperature;BMP_pressure;BME280_temperature;BME280_humidity;BME280_pressure;Samples;Min_cycle;Max_cycle;Signal;HPM_P1;HPM_P2
2022/03/09 00:00:28;;;;;;;13.87;8.40;;;10.40;99.90;;;;;;5063072;28;20471;-62
2022/03/09 00:03:01;;;;;;;9.50;8.13;;;10.50;99.90;;;;;;5065614;28;20847;-63
2022/03/09 00:05:32;;;;;;;11.10;8.23;;;10.50;99.90;;;;;;5064462;28;20514;-62
2022/03/09 00:08:04;;;;;;;9.90;8.93;;;10.50;99.90;;;;;;5065121;28;20441;-62
2022/03/09 00:10:35;;;;;;;11.53;8.77;;;10.40;99.90;;;;;;5065306;28;20519;-62
2022/03/09 00:13:06;;;;;;;12.87;7.77;;;10.40;99.90;;;;;;5063814;28;20487;-62
2022/03/09 00:15:37;;;;;;;10.60;8.33;;;10.40;99.90;;;;;;5060682;28;20480;-63
2022/03/09 00:18:09;;;;;;;9.90;8.50;;;10.40;99.90;;;;;;5059228;28;20470;-63
2022/03/09 00:20:40;;;;;;;11.57;10.33;;;10.50;99.90;;;;;;5061717;28;20460;-64
2022/03/09 00:23:11;;;;;;;10.00;8.43;;;10.60;99.90;;;;;;5063253;28;20531;-63
2022/03/09 00:25:42;;;;;;;13.83;9.30;;;10.60;99.90;;;;;;5064756;28;20507;-63
2022/03/09 00:28:13;;;;;;;11.40;8.67;;;10.60;99.90;;;;;;5063746;28;20478;-63
2022/03/09 00:30:44;;;;;;;11.50;8.57;;;10.50;99.90;;;;;;5065148;28;20525;-63
2022/03/09 00:33:16;;;;;;;14.20;9.60;;;10.50;99.90;;;;;;5053635;28;20448;-63
2022/03/09 00:35:47;;;;;;;11.57;9.07;;;10.60;99.90;;;;;;5065324;28;20539;-63
2022/03/09 00:38:18;;;;;;;12.50;9.50;;;10.60;99.90;;;;;;5064466;28;20528;-63
2022/03/09 00:40:50;;;;;;;12.07;9.53;;;10.40;99.90;;;;;;5064414;28;20453;-63
2022/03/09 00:43:21;;;;;;;15.73;10.33;;;10.30;99.90;;;;;;5058654;28;20502;-63
2022/03/09 00:45:54;;;;;;;11.90;10.70;;;10.40;99.90;;;;;;5064553;28;20988;-63
2022/03/09 00:48:26;;;;;;;12.20;10.43;;;10.50;99.90;;;;;;5063315;28;20526;-63
2022/03/09 00:50:58;;;;;;;14.17;10.50;;;10.50;99.90;;;;;;5065850;28;20460;-64
2022/03/09 00:53:28;;;;;;;14.30;10.67;;;10.50;99.90;;;;;;5071587;28;20460;-65
2022/03/09 00:55:59;;;;;;;13.50;10.37;;;10.30;99.90;;;;;;5065597;28;20456;-62
2022/03/09 00:58:31;;;;;;;12.70;10.53;;;10.30;99.90;;;;;;5062083;28;20448;-64
2022/03/09 01:01:02;;;;;;;12.60;10.50;;;10.30;99.90;;;;;;5071950;28;20645;-65
2022/03/09 01:03:35;;;;;;;12.03;10.10;;;10.30;99.90;;;;;;5058278;28;20454;-63
2022/03/09 01:06:06;;;;;;;14.80;12.00;;;10.40;99.90;;;;;;5063795;28;20488;-63
2022/03/09 01:08:39;;;;;;;11.70;10.60;;;10.40;99.90;;;;;;5063255;28;20444;-65
2022/03/09 01:11:10;;;;;;;11.93;10.83;;;10.30;99.90;;;;;;5062247;28;20994;-63
2022/03/09 01:13:41;;;;;;;13.83;12.40;;;10.20;99.90;;;;;;5064389;28;20448;-64
2022/03/09 01:16:13;;;;;;;16.67;12.07;;;10.10;99.90;;;;;;5063698;28;20507;-61
2022/03/09 01:18:49;;;;;;;12.67;11.37;;;10.10;99.90;;;;;;5062549;28;20458;-63
2022/03/09 01:21:20;;;;;;;14.37;11.43;;;10.10;99.90;;;;;;5062076;28;20531;-63
2022/03/09 01:23:50;;;;;;;15.43;11.87;;;10.00;99.90;;;;;;5062246;28;20472;-63
2022/03/09 01:26:21;;;;;;;14.80;10.90;;;10.00;99.90;;;;;;5063423;28;20488;-62
2022/03/09 01:28:53;;;;;;;12.20;10.63;;;9.90;99.90;;;;;;5066864;28;20463;-65
2022/03/09 01:31:24;;;;;;;14.97;11.40;;;10.00;99.90;;;;;;5057406;28;20449;-61
2022/03/09 01:33:57;;;;;;;14.10;10.53;;;10.10;99.90;;;;;;5060206;28;20535;-66
2022/03/09 01:36:28;;;;;;;15.70;11.10;;;10.00;99.90;;;;;;5067226;28;20484;-62
2022/03/09 01:38:59;;;;;;;16.93;11.87;;;9.90;99.90;;;;;;5070135;28;20528;-62
2022/03/09 01:41:30;;;;;;;12.23;10.90;;;9.90;99.90;;;;;;5060968;28;20444;-61
2022/03/09 01:44:12;;;;;;;12.23;11.03;;;9.90;99.90;;;;;;5061536;28;20967;-62
2022/03/09 01:46:44;;;;;;;13.60;11.33;;;9.90;99.90;;;;;;5062672;28;20499;-61
2022/03/09 01:49:18;;;;;;;13.30;11.30;;;10.00;99.90;;;;;;5062644;28;20484;-63
2022/03/09 01:51:50;;;;;;;14.80;12.60;;;10.20;99.90;;;;;;5061308;28;20524;-62
2022/03/09 01:54:22;;;;;;;14.57;12.00;;;10.20;99.90;;;;;;5062343;28;20454;-62
2022/03/09 01:56:53;;;;;;;15.60;12.83;;;10.20;99.90;;;;;;5063813;28;21105;-65
2022/03/09 01:59:24;;;;;;;17.47;12.17;;;10.10;99.90;;;;;;5062118;28;20463;-67
2022/03/09 02:01:55;;;;;;;18.73;12.40;;;10.10;99.90;;;;;;5063744;28;20464;-62
2022/03/09 02:04:28;;;;;;;15.23;12.77;;;10.00;99.90;;;;;;5061443;28;20452;-63
2022/03/09 02:07:01;;;;;;;16.80;12.30;;;9.90;99.90;;;;;;5061779;28;20526;-68
2022/03/09 02:09:44;;;;;;;19.90;12.23;;;9.90;99.90;;;;;;5062151;28;20520;-67
2022/03/09 02:12:17;;;;;;;17.13;13.00;;;10.10;99.90;;;;;;5060115;28;20904;-66
2022/03/09 02:14:53;;;;;;;15.47;12.20;;;10.00;99.90;;;;;;5061068;28;20524;-67
2022/03/09 02:17:29;;;;;;;15.23;12.93;;;10.10;99.90;;;;;;5062444;28;20472;-64
2022/03/09 02:20:01;;;;;;;17.43;13.10;;;9.90;99.90;;;;;;5061871;28;20528;-65
2022/03/09 02:22:38;;;;;;;16.33;12.47;;;9.80;99.90;;;;;;5062200;28;20452;-64
2022/03/09 02:25:11;;;;;;;16.40;13.23;;;9.80;99.90;;;;;;5071156;28;20444;-67
2022/03/09 02:27:44;;;;;;;20.00;13.70;;;9.70;99.90;;;;;;5061077;28;20441;-64
2022/03/09 02:30:17;;;;;;;15.40;12.33;;;9.70;99.90;;;;;;5060095;28;20490;-63
2022/03/09 02:32:49;;;;;;;17.97;13.07;;;9.70;99.90;;;;;;5060017;28;20790;-63
2022/03/09 02:35:21;;;;;;;17.50;13.57;;;9.70;99.90;;;;;;5064577;28;20452;-64
2022/03/09 02:37:57;;;;;;;15.20;13.70;;;9.70;99.90;;;;;;5064590;28;20492;-63
2022/03/09 02:40:28;;;;;;;14.67;13.13;;;9.70;99.90;;;;;;5062347;28;20772;-61
2022/03/09 02:43:00;;;;;;;17.23;14.37;;;9.70;99.90;;;;;;5060289;28;20456;-65
2022/03/09 02:45:31;;;;;;;17.93;15.07;;;9.70;99.90;;;;;;5061827;28;20515;-64
2022/03/09 02:48:02;;;;;;;17.03;14.00;;;9.70;99.90;;;;;;5064055;28;20460;-64
2022/03/09 02:50:33;;;;;;;17.07;13.60;;;9.70;99.90;;;;;;5061703;28;20512;-64
2022/03/09 02:53:05;;;;;;;15.73;13.70;;;9.70;99.90;;;;;;5060843;28;20580;-66
2022/03/09 02:55:36;;;;;;;14.73;13.17;;;9.70;99.90;;;;;;5069748;28;20520;-68
2022/03/09 02:58:07;;;;;;;15.57;13.10;;;9.70;99.90;;;;;;5060369;28;20449;-65
2022/03/09 03:00:38;;;;;;;13.67;12.23;;;9.60;99.90;;;;;;5061659;28;20920;-65
2022/03/09 03:03:09;;;;;;;13.17;11.87;;;9.60;99.90;;;;;;5053592;28;20485;-64
2022/03/09 03:05:40;;;;;;;12.33;9.90;;;9.60;99.90;;;;;;5047480;28;20526;-64
2022/03/09 03:08:20;;;;;;;10.83;9.50;;;9.60;99.90;;;;;;5047471;28;20777;-64
2022/03/09 03:10:51;;;;;;;13.82;8.77;;;9.50;99.90;;;;;;5057841;28;20558;-64
2022/03/09 03:13:22;;;;;;;8.00;6.30;;;9.50;99.90;;;;;;5049372;28;20197;-64
2022/03/09 03:16:00;;;;;;;8.13;6.37;;;9.60;99.90;;;;;;5061486;28;20492;-64
2022/03/09 03:18:32;;;;;;;9.00;7.43;;;9.50;99.90;;;;;;5061018;28;20452;-64
2022/03/09 03:21:03;;;;;;;9.83;7.10;;;9.40;99.90;;;;;;5060372;28;20480;-64
2022/03/09 03:23:37;;;;;;;10.07;7.20;;;9.40;99.90;;;;;;5052949;28;20493;-64
2022/03/09 03:26:08;;;;;;;8.70;7.30;;;9.30;99.90;;;;;;5053876;28;20523;-64
2022/03/09 03:28:39;;;;;;;8.13;7.23;;;9.30;99.90;;;;;;5061312;28;20535;-64
2022/03/09 03:31:10;;;;;;;10.70;7.97;;;9.30;99.90;;;;;;5058289;28;20471;-63
2022/03/09 03:33:41;;;;;;;7.20;6.27;;;9.40;99.90;;;;;;5057393;28;20540;-64
2022/03/09 03:36:12;;;;;;;10.67;7.50;;;9.40;99.90;;;;;;5061262;28;20492;-64
2022/03/09 03:38:45;;;;;;;8.90;7.10;;;9.40;99.90;;;;;;5060831;28;20479;-65
2022/03/09 03:41:16;;;;;;;9.93;7.10;;;9.40;99.90;;;;;;5058464;28;20968;-69
2022/03/09 03:43:58;;;;;;;9.77;7.30;;;9.30;99.90;;;;;;5050762;28;20459;-65
2022/03/09 03:46:32;;;;;;;8.80;6.80;;;9.30;99.90;;;;;;5053200;28;20997;-64
2022/03/09 03:49:03;;;;;;;7.43;6.33;;;9.30;99.90;;;;;;5060792;28;20452;-67
2022/03/09 03:51:34;;;;;;;9.80;6.93;;;9.30;99.90;;;;;;5064238;28;20444;-66
2022/03/09 03:54:10;;;;;;;12.15;6.40;;;9.30;99.90;;;;;;5061609;28;20444;-66
2022/03/09 03:56:41;;;;;;;8.70;6.33;;;9.20;99.90;;;;;;5061279;28;20253;-67
2022/03/09 03:59:11;;;;;;;6.57;5.83;;;9.30;99.90;;;;;;5059942;28;20464;-67
2022/03/09 04:01:42;;;;;;;6.93;5.60;;;9.20;99.90;;;;;;5062636;28;20527;-66
2022/03/09 04:04:14;;;;;;;7.90;5.10;;;9.20;99.90;;;;;;5062309;28;20444;-64
2022/03/09 04:06:45;;;;;;;6.00;5.13;;;9.30;99.90;;;;;;5065670;28;20570;-65
2022/03/09 04:09:17;;;;;;;6.53;4.93;;;9.20;99.90;;;;;;5071294;28;20472;-65
2022/03/09 04:11:52;;;;;;;8.40;4.73;;;9.20;99.90;;;;;;5072917;28;20462;-64
2022/03/09 04:14:23;;;;;;;7.60;4.30;;;9.20;99.90;;;;;;5063641;28;20483;-63
2022/03/09 04:16:55;;;;;;;6.60;4.53;;;9.10;99.90;;;;;;5061817;28;20527;-65
2022/03/09 04:19:26;;;;;;;5.60;3.90;;;9.10;99.90;;;;;;5060788;28;20521;-65
2022/03/09 04:21:57;;;;;;;5.90;4.57;;;9.10;99.90;;;;;;5064062;28;20460;-65
2022/03/09 04:24:30;;;;;;;6.77;5.00;;;9.10;99.90;;;;;;5063395;28;20456;-65
2022/03/09 04:27:00;;;;;;;5.53;4.88;;;9.10;99.90;;;;;;5063736;28;20604;-65
2022/03/09 04:29:32;;;;;;;5.87;5.30;;;8.90;99.90;;;;;;5064010;28;20193;-65
2022/03/09 04:32:03;;;;;;;4.67;3.60;;;8.90;99.90;;;;;;5059479;28;20551;-65
2022/03/09 04:34:34;;;;;;;6.13;3.57;;;9.00;99.90;;;;;;5062950;28;20480;-65
2022/03/09 04:37:06;;;;;;;6.63;4.40;;;9.00;99.90;;;;;;5059419;28;20545;-65
2022/03/09 04:39:42;;;;;;;4.57;3.97;;;8.90;99.90;;;;;;5066590;28;20548;-64
2022/03/09 04:42:14;;;;;;;5.03;3.97;;;8.90;99.90;;;;;;5060468;28;20440;-64
2022/03/09 04:44:45;;;;;;;7.70;5.93;;;8.90;99.90;;;;;;5063964;28;20464;-64
2022/03/09 04:47:16;;;;;;;6.38;3.60;;;8.90;99.90;;;;;;5047615;28;20488;-64
2022/03/09 04:49:47;;;;;;;5.43;4.10;;;9.00;99.90;;;;;;5052939;28;20565;-64
2022/03/09 04:52:18;;;;;;;6.53;4.00;;;8.90;99.90;;;;;;5063523;28;20475;-64
2022/03/09 04:54:50;;;;;;;5.07;3.97;;;8.90;99.90;;;;;;5068032;28;20202;-64
2022/03/09 04:57:24;;;;;;;5.53;3.80;;;8.90;99.90;;;;;;5064421;28;20193;-64
2022/03/09 04:59:59;;;;;;;5.73;3.30;;;8.90;99.90;;;;;;5064321;28;20451;-64
2022/03/09 05:02:32;;;;;;;4.30;3.75;;;8.80;99.90;;;;;;5063578;28;20470;-64
2022/03/09 05:05:09;;;;;;;5.05;4.18;;;8.80;99.90;;;;;;5063693;28;20198;-64
2022/03/09 05:07:42;;;;;;;5.60;4.45;;;8.80;99.90;;;;;;5062172;28;20673;-65
2022/03/09 05:10:14;;;;;;;5.93;3.75;;;8.90;99.90;;;;;;5062242;28;20213;-65
2022/03/09 05:12:45;;;;;;;8.13;4.43;;;8.90;99.90;;;;;;5062977;28;20224;-65
2022/03/09 05:15:18;;;;;;;9.07;4.63;;;8.90;99.90;;;;;;5070929;28;20222;-64
2022/03/09 05:17:53;;;;;;;5.07;3.93;;;8.90;99.90;;;;;;5065050;28;20454;-64
2022/03/09 05:20:24;;;;;;;6.40;4.33;;;8.90;99.90;;;;;;5063653;28;20452;-64
2022/03/09 05:22:58;;;;;;;5.97;3.83;;;9.00;99.90;;;;;;5063289;28;20452;-64
2022/03/09 05:25:33;;;;;;;9.50;4.63;;;9.10;99.90;;;;;;5063628;28;20476;-64
2022/03/09 05:28:04;;;;;;;5.13;4.20;;;9.10;99.90;;;;;;5072501;28;20548;-64
2022/03/09 05:30:35;;;;;;;6.82;4.90;;;9.00;99.90;;;;;;5067758;28;20229;-64
2022/03/09 05:33:06;;;;;;;8.15;5.00;;;8.90;99.90;;;;;;5062956;28;20265;-64
2022/03/09 05:35:38;;;;;;;7.03;4.90;;;8.90;99.90;;;;;;5068035;28;20222;-64
2022/03/09 05:38:09;;;;;;;6.87;4.83;;;8.90;99.90;;;;;;5062847;28;20216;-63
2022/03/09 05:40:44;;;;;;;8.30;5.22;;;8.90;99.90;;;;;;5052057;28;20460;-64
2022/03/09 05:43:15;;;;;;;7.33;5.70;;;8.90;99.90;;;;;;5062866;28;20229;-64
2022/03/09 05:45:48;;;;;;;6.18;5.35;;;8.90;99.90;;;;;;5069584;28;20532;-64
2022/03/09 05:48:21;;;;;;;6.07;4.50;;;9.00;99.90;;;;;;5063119;28;20240;-63
2022/03/09 05:50:55;;;;;;;7.30;5.07;;;8.90;99.90;;;;;;5066176;28;20535;-63
2022/03/09 05:53:26;;;;;;;9.27;5.50;;;8.80;99.90;;;;;;5068741;28;20559;-63
2022/03/09 05:55:58;;;;;;;9.25;5.15;;;8.80;99.90;;;;;;5064622;28;20451;-64
2022/03/09 05:58:30;;;;;;;8.43;5.47;;;8.70;99.90;;;;;;5066476;28;20207;-63
2022/03/09 06:01:01;;;;;;;7.10;5.60;;;8.70;99.90;;;;;;5062460;28;20524;-64
2022/03/09 06:03:32;;;;;;;5.90;4.20;;;8.60;99.90;;;;;;5068616;28;20498;-63
2022/03/09 06:06:07;;;;;;;7.30;5.40;;;8.60;99.90;;;;;;5077403;28;20466;-63
2022/03/09 06:08:41;;;;;;;5.65;5.13;;;8.60;99.90;;;;;;5063594;28;20244;-63
2022/03/09 06:11:22;;;;;;;10.30;5.00;;;8.70;99.90;;;;;;5064757;28;20189;-63
2022/03/09 06:14:02;;;;;;;5.88;4.43;;;8.60;99.90;;;;;;5060150;28;20500;-64
2022/03/09 06:16:33;;;;;;;5.50;4.00;;;8.60;99.90;;;;;;5072191;28;20297;-63
2022/03/09 06:19:04;;;;;;;7.38;4.57;;;8.60;99.90;;;;;;5070570;28;20456;-63
2022/03/09 06:21:35;;;;;;;8.70;4.90;;;8.70;99.90;;;;;;5061340;28;20210;-64
2022/03/09 06:24:08;;;;;;;4.60;4.20;;;8.70;99.90;;;;;;5062320;28;20520;-64
2022/03/09 06:26:41;;;;;;;6.63;5.20;;;8.70;99.90;;;;;;5068013;28;20780;-64
2022/03/09 06:29:12;;;;;;;8.60;4.75;;;8.60;99.90;;;;;;5063853;28;20495;-63
2022/03/09 06:31:44;;;;;;;6.35;4.80;;;8.70;99.90;;;;;;5062830;28;20300;-63
2022/03/09 06:34:16;;;;;;;8.07;4.73;;;8.80;99.90;;;;;;5063604;28;20304;-63
2022/03/09 06:36:47;;;;;;;6.60;4.37;;;8.70;99.90;;;;;;5061946;28;20484;-63
2022/03/09 06:39:18;;;;;;;5.73;4.40;;;8.80;99.90;;;;;;5062429;28;20527;-63
2022/03/09 06:41:54;;;;;;;9.02;5.30;;;8.80;99.90;;;;;;5068362;28;20531;-63
2022/03/09 06:44:25;;;;;;;5.68;5.18;;;8.80;99.90;;;;;;5062406;28;20209;-63
2022/03/09 06:46:58;;;;;;;5.93;5.32;;;8.80;99.90;;;;;;5063059;28;20289;-63
2022/03/09 06:49:29;;;;;;;6.50;5.10;;;8.70;99.90;;;;;;5064832;28;20302;-63
2022/03/09 06:52:02;;;;;;;6.40;5.57;;;8.60;99.90;;;;;;5068132;28;20289;-63
2022/03/09 06:54:33;;;;;;;7.88;6.20;;;8.60;99.90;;;;;;5062110;28;20513;-63
2022/03/09 06:57:06;;;;;;;7.75;5.80;;;8.50;99.90;;;;;;5062403;28;20209;-63
2022/03/09 06:59:37;;;;;;;9.95;6.38;;;8.50;99.90;;;;;;5067298;28;20236;-63
2022/03/09 07:02:08;;;;;;;7.20;6.35;;;8.40;99.90;;;;;;5073657;28;20251;-63
2022/03/09 07:04:39;;;;;;;8.25;6.75;;;8.40;99.90;;;;;;5059452;28;20197;-63
2022/03/09 07:07:10;;;;;;;7.77;7.00;;;8.40;99.90;;;;;;5061403;28;20214;-63
2022/03/09 07:09:41;;;;;;;7.00;6.23;;;8.50;99.90;;;;;;5064718;28;20483;-63
2022/03/09 07:12:14;;;;;;;11.30;6.03;;;8.40;99.90;;;;;;5063907;28;20455;-63
2022/03/09 07:14:45;;;;;;;8.30;5.95;;;8.40;99.90;;;;;;5067242;28;20562;-63
2022/03/09 07:17:16;;;;;;;10.73;6.38;;;8.40;99.90;;;;;;5067355;28;20194;-63
2022/03/09 07:19:53;;;;;;;5.50;4.97;;;8.30;99.90;;;;;;5063451;28;20213;-63
2022/03/09 07:22:24;;;;;;;12.18;6.07;;;8.30;99.90;;;;;;5061124;28;20281;-63
2022/03/09 07:24:57;;;;;;;9.00;5.80;;;8.30;99.90;;;;;;5061698;28;20198;-63
2022/03/09 07:27:30;;;;;;;6.65;5.15;;;8.20;99.90;;;;;;5061869;28;20317;-63
2022/03/09 07:30:01;;;;;;;8.57;5.22;;;8.20;99.90;;;;;;5064023;28;20208;-63
2022/03/09 07:32:32;;;;;;;7.95;6.30;;;8.20;99.90;;;;;;5064150;28;20657;-63
2022/03/09 07:35:23;;;;;;;12.57;5.60;;;8.10;99.90;;;;;;5064733;28;20214;-63
2022/03/09 07:37:57;;;;;;;10.57;5.88;;;8.20;99.90;;;;;;5068094;28;20522;-63
2022/03/09 07:40:28;;;;;;;8.18;6.45;;;8.20;99.90;;;;;;5065647;28;20202;-63
2022/03/09 07:43:04;;;;;;;8.00;5.55;;;8.20;99.90;;;;;;5070992;28;20204;-62
2022/03/09 07:45:35;;;;;;;6.30;5.60;;;8.20;99.90;;;;;;5067254;28;20212;-63
2022/03/09 07:48:11;;;;;;;10.18;6.20;;;8.20;99.90;;;;;;5065722;28;20535;-63
2022/03/09 07:50:42;;;;;;;9.35;6.53;;;8.20;99.90;;;;;;5067635;28;20204;-63
2022/03/09 07:53:19;;;;;;;7.97;6.45;;;8.20;99.90;;;;;;5066330;28;20202;-63
2022/03/09 07:55:50;;;;;;;10.10;6.50;;;8.10;99.90;;;;;;5059665;28;20240;-63
2022/03/09 07:58:23;;;;;;;8.32;6.53;;;8.10;99.90;;;;;;5064746;28;20206;-63
2022/03/09 08:00:54;;;;;;;12.85;6.93;;;8.10;99.90;;;;;;5065124;28;20582;-62
2022/03/09 08:03:29;;;;;;;9.43;6.97;;;8.00;99.90;;;;;;5064977;28;20197;-62
2022/03/09 08:06:07;;;;;;;11.73;6.57;;;8.00;99.90;;;;;;5065862;28;20198;-63
2022/03/09 08:08:39;;;;;;;10.30;7.03;;;7.90;99.90;;;;;;5065603;28;20220;-63
2022/03/09 08:11:10;;;;;;;10.25;7.20;;;7.90;99.90;;;;;;5075914;28;20557;-63
2022/03/09 08:13:43;;;;;;;9.18;6.10;;;7.90;99.90;;;;;;5054531;28;20202;-63
2022/03/09 08:16:14;;;;;;;13.27;7.35;;;8.00;99.90;;;;;;5066837;28;20256;-63
2022/03/09 08:18:45;;;;;;;9.05;6.35;;;8.10;99.90;;;;;;5063591;28;20252;-63
2022/03/09 08:21:16;;;;;;;10.35;7.00;;;8.00;99.90;;;;;;5065719;28;20277;-63
2022/03/09 08:23:50;;;;;;;8.57;6.95;;;8.00;99.90;;;;;;5071228;28;20194;-63
2022/03/09 08:26:21;;;;;;;9.43;6.70;;;8.00;99.90;;;;;;5059668;28;20273;-63
2022/03/09 08:28:54;;;;;;;8.68;6.85;;;8.00;99.90;;;;;;5062790;28;20226;-62
2022/03/09 08:31:26;;;;;;;8.68;6.65;;;8.00;99.90;;;;;;5064235;28;20633;-62
2022/03/09 08:33:58;;;;;;;9.98;7.50;;;8.00;99.90;;;;;;5065206;28;20234;-62
2022/03/09 08:36:29;;;;;;;10.77;6.97;;;7.90;99.90;;;;;;5074458;28;20186;-62
2022/03/09 08:39:01;;;;;;;10.80;7.05;;;8.00;99.90;;;;;;5072319;28;20198;-63
2022/03/09 08:41:32;;;;;;;12.48;7.70;;;8.00;99.90;;;;;;5064637;28;20198;-63
2022/03/09 08:44:10;;;;;;;10.32;7.38;;;8.00;99.90;;;;;;5065860;28;20208;-63
2022/03/09 08:46:42;;;;;;;11.38;6.70;;;8.00;99.90;;;;;;5063707;28;20198;-62
2022/03/09 08:49:14;;;;;;;12.45;6.78;;;7.90;99.90;;;;;;5064809;28;20229;-63
2022/03/09 08:51:45;;;;;;;7.78;5.95;;;7.90;99.90;;;;;;5065093;28;20285;-63
2022/03/09 08:54:23;;;;;;;9.85;6.85;;;7.90;99.90;;;;;;5069570;28;20277;-63
2022/03/09 08:56:54;;;;;;;11.50;7.15;;;7.90;99.90;;;;;;5072471;28;20257;-63
2022/03/09 08:59:30;;;;;;;13.73;7.50;;;8.00;99.90;;;;;;5070777;28;20214;-62
2022/03/09 09:02:01;;;;;;;8.80;6.80;;;8.10;99.90;;;;;;5065403;28;20208;-63
2022/03/09 09:04:32;;;;;;;10.63;7.38;;;8.10;99.90;;;;;;5069155;28;20225;-63
2022/03/09 09:07:03;;;;;;;11.57;7.20;;;8.10;99.90;;;;;;5063899;28;20190;-63
2022/03/09 09:09:39;;;;;;;12.23;8.35;;;8.00;99.90;;;;;;5065270;28;20230;-62
2022/03/09 09:12:11;;;;;;;11.38;7.07;;;7.90;99.90;;;;;;5068470;28;20228;-63
2022/03/09 09:14:45;;;;;;;7.32;6.50;;;7.80;99.90;;;;;;5074103;28;20313;-63
2022/03/09 09:17:16;;;;;;;9.70;7.10;;;7.90;99.90;;;;;;5061274;28;20805;-62
2022/03/09 09:20:06;;;;;;;10.55;6.60;;;7.90;99.90;;;;;;5070368;28;20233;-63
2022/03/09 09:22:42;;;;;;;13.02;7.05;;;7.90;99.90;;;;;;5064677;28;20208;-63
2022/03/09 09:25:33;;;;;;;10.75;7.10;;;7.90;99.90;;;;;;5062785;28;20266;-63
2022/03/09 09:28:05;;;;;;;8.55;6.85;;;7.90;99.90;;;;;;5063344;28;20258;-63
2022/03/09 09:30:38;;;;;;;12.43;7.72;;;7.90;99.90;;;;;;5063249;28;20236;-63
2022/03/09 09:33:08;;;;;;;13.13;8.02;;;7.90;99.90;;;;;;5064719;28;20276;-63
2022/03/09 09:35:40;;;;;;;10.40;7.35;;;7.90;99.90;;;;;;5064553;28;20198;-63
2022/03/09 09:38:10;;;;;;;11.73;9.82;;;8.00;99.90;;;;;;5064580;28;20198;-63
2022/03/09 09:40:45;;;;;;;13.50;8.60;;;8.10;99.90;;;;;;5063226;28;20198;-63
2022/03/09 09:43:17;;;;;;;12.38;8.95;;;8.00;99.90;;;;;;5068997;28;20197;-62
2022/03/09 09:45:50;;;;;;;22.92;9.55;;;7.90;99.90;;;;;;5064317;28;20212;-63
2022/03/09 09:48:21;;;;;;;13.45;8.23;;;8.00;99.90;;;;;;5071299;28;20292;-63
2022/03/09 09:50:54;;;;;;;12.98;9.38;;;8.00;99.90;;;;;;5063372;28;20230;-63
2022/03/09 09:53:26;;;;;;;10.30;8.35;;;8.00;99.90;;;;;;5061714;28;20238;-63
2022/03/09 09:56:00;;;;;;;11.30;8.85;;;7.90;99.90;;;;;;5063498;28;20190;-63
2022/03/09 09:58:32;;;;;;;11.48;10.20;;;7.90;99.90;;;;;;5062433;28;20245;-63
2022/03/09 10:01:07;;;;;;;13.40;8.40;;;7.90;99.90;;;;;;5064043;28;20285;-63
2022/03/09 10:03:38;;;;;;;10.30;8.32;;;7.80;99.90;;;;;;5065595;28;20251;-63
2022/03/09 10:06:10;;;;;;;10.73;9.00;;;7.80;99.90;;;;;;5069118;28;20202;-63
2022/03/09 10:08:41;;;;;;;14.60;8.85;;;7.70;99.90;;;;;;5064055;28;20202;-63
2022/03/09 10:11:12;;;;;;;10.00;8.15;;;7.70;99.90;;;;;;5070283;28;20225;-63
2022/03/09 10:13:43;;;;;;;9.82;8.15;;;7.70;99.90;;;;;;5062044;28;20186;-63
2022/03/09 10:16:18;;;;;;;11.18;8.50;;;7.60;99.90;;;;;;5063472;28;20253;-63
2022/03/09 10:18:53;;;;;;;9.05;7.38;;;7.70;99.90;;;;;;5069298;28;20212;-63
2022/03/09 10:21:26;;;;;;;9.23;7.55;;;7.60;99.90;;;;;;5062846;28;20199;-63
2022/03/09 10:23:59;;;;;;;8.88;7.82;;;7.60;99.90;;;;;;5062984;28;20210;-63
2022/03/09 10:26:45;;;;;;;7.85;7.05;;;7.60;99.90;;;;;;5064015;28;20186;-63
2022/03/09 10:29:19;;;;;;;7.97;7.18;;;7.60;99.90;;;;;;5064407;28;20185;-63
2022/03/09 10:31:59;;;;;;;11.65;7.85;;;7.60;99.90;;;;;;5053434;28;20202;-62
2022/03/09 10:34:30;;;;;;;9.95;7.75;;;7.60;99.90;;;;;;5073889;28;20209;-62
2022/03/09 10:37:03;;;;;;;9.93;7.30;;;7.50;99.90;;;;;;5067335;28;20308;-63
2022/03/09 10:39:36;;;;;;;9.57;7.82;;;7.60;99.90;;;;;;5067498;28;20202;-63
2022/03/09 10:42:24;;;;;;;6.70;6.00;;;7.60;99.90;;;;;;5061377;28;20201;-62
2022/03/09 10:44:56;;;;;;;8.27;6.57;;;7.70;99.90;;;;;;5062161;28;20205;-63
2022/03/09 10:47:35;;;;;;;8.50;6.93;;;7.60;99.90;;;;;;5058576;28;20204;-63
2022/03/09 10:50:11;;;;;;;11.80;7.82;;;7.60;99.90;;;;;;5055256;28;20649;-62
2022/03/09 10:52:46;;;;;;;10.10;6.40;;;7.60;99.90;;;;;;5061493;28;20201;-63
2022/03/09 10:55:26;;;;;;;7.47;6.50;;;7.60;99.90;;;;;;5062390;28;20201;-62
2022/03/09 10:58:13;;;;;;;8.52;7.20;;;7.60;99.90;;;;;;5070321;28;20201;-63
2022/03/09 11:00:45;;;;;;;9.00;6.65;;;7.60;99.90;;;;;;5061320;28;20202;-63
2022/03/09 11:03:20;;;;;;;8.85;7.82;;;7.60;99.90;;;;;;5062382;28;20206;-63
2022/03/09 11:05:53;;;;;;;9.15;6.57;;;7.50;99.90;;;;;;5056567;28;20285;-63
2022/03/09 11:08:26;;;;;;;8.60;7.20;;;7.60;99.90;;;;;;5075232;28;20285;-63
2022/03/09 11:10:58;;;;;;;7.68;5.70;;;7.60;99.90;;;;;;5067611;28;20648;-63
2022/03/09 11:13:33;;;;;;;10.63;5.95;;;7.60;99.90;;;;;;5065747;28;20627;-63
2022/03/09 11:16:05;;;;;;;9.90;6.93;;;7.60;99.90;;;;;;5069120;28;20332;-63
2022/03/09 11:18:38;;;;;;;7.85;5.72;;;7.60;99.90;;;;;;5066007;28;20186;-63
2022/03/09 11:21:11;;;;;;;9.68;6.68;;;7.60;99.90;;;;;;5067855;28;20629;-63
2022/03/09 11:23:43;;;;;;;5.95;5.22;;;7.70;99.90;;;;;;5066967;28;20190;-63
2022/03/09 11:26:16;;;;;;;5.82;5.30;;;7.70;99.90;;;;;;5067370;28;20270;-63
2022/03/09 11:28:47;;;;;;;6.53;4.80;;;7.60;99.90;;;;;;5065642;28;20220;-63
2022/03/09 11:31:21;;;;;;;5.82;5.32;;;7.60;99.90;;;;;;5066071;28;20301;-63
2022/03/09 11:33:56;;;;;;;5.13;4.63;;;7.60;99.90;;;;;;5065888;28;20296;-63
2022/03/09 11:36:39;;;;;;;7.00;5.10;;;7.60;99.90;;;;;;5069037;28;20181;-62
2022/03/09 11:39:25;;;;;;;4.40;4.00;;;7.70;99.90;;;;;;5084100;28;20190;-63
2022/03/09 11:42:28;;;;;;;5.05;4.55;;;7.60;99.90;;;;;;5066590;28;20220;-62
2022/03/09 11:45:33;;;;;;;5.47;4.22;;;7.60;99.90;;;;;;5063900;28;20352;-62
2022/03/09 11:48:07;;;;;;;5.68;4.40;;;7.60;99.90;;;;;;5067658;28;20221;-63
2022/03/09 11:51:14;;;;;;;5.78;4.25;;;7.50;99.90;;;;;;5065904;28;20224;-63
2022/03/09 11:53:47;;;;;;;6.15;4.05;;;7.50;99.90;;;;;;5071924;28;20216;-63
2022/03/09 11:56:25;;;;;;;3.95;3.55;;;7.50;99.90;;;;;;5066486;28;20206;-63
2022/03/09 11:59:19;;;;;;;5.32;3.88;;;7.50;99.90;;;;;;5077081;28;20205;-64
2022/03/09 12:02:15;;;;;;;5.63;3.63;;;7.50;99.90;;;;;;5068631;28;20202;-62
2022/03/09 12:04:51;;;;;;;4.50;4.10;;;7.50;99.90;;;;;;5066017;28;20233;-62
2022/03/09 12:07:49;;;;;;;4.15;3.75;;;7.50;99.90;;;;;;5059251;28;20663;-62
2022/03/09 12:10:22;;;;;;;4.97;3.95;;;7.50;99.90;;;;;;5073446;28;20251;-63
2022/03/09 12:13:31;;;;;;;4.20;3.78;;;7.40;99.90;;;;;;5065558;28;20208;-62
2022/03/09 12:16:14;;;;;;;3.10;2.80;;;7.40;99.90;;;;;;5064553;28;20237;-62
2022/03/09 12:19:06;;;;;;;2.47;2.28;;;7.20;99.90;;;;;;5063725;28;20216;-62
2022/03/09 12:22:02;;;;;;;2.03;1.83;;;7.00;99.90;;;;;;5065785;28;20182;-61
2022/03/09 12:24:39;;;;;;;0.73;0.68;;;6.60;99.90;;;;;;5063966;28;20262;-61
2022/03/09 12:27:26;;;;;;;0.60;0.60;;;6.30;99.90;;;;;;5072184;28;20987;-61
2022/03/09 12:29:57;;;;;;;0.70;0.70;;;5.80;99.90;;;;;;5065197;28;20230;-60
2022/03/09 12:32:40;;;;;;;0.65;0.60;;;5.50;99.90;;;;;;5050653;28;20230;-60
2022/03/09 12:35:12;;;;;;;0.50;0.50;;;5.30;99.90;;;;;;5065614;28;20269;-60
2022/03/09 12:37:43;;;;;;;0.52;0.30;;;5.20;99.90;;;;;;5064136;28;20213;-60
2022/03/09 12:40:16;;;;;;;0.43;0.43;;;5.10;99.90;;;;;;5065467;28;20224;-60
2022/03/09 12:43:00;;;;;;;0.40;0.32;;;4.90;99.90;;;;;;5065070;28;20308;-59
2022/03/09 12:45:52;;;;;;;0.50;0.50;;;4.80;99.90;;;;;;5053566;28;20202;-59
2022/03/09 12:48:24;;;;;;;0.50;0.50;;;4.70;99.90;;;;;;5068422;28;20206;-59
2022/03/09 12:50:55;;;;;;;0.43;0.43;;;4.60;99.90;;;;;;5064182;28;20244;-59
2022/03/09 12:53:25;;;;;;;0.32;0.32;;;4.60;99.90;;;;;;5072146;28;20211;-59
2022/03/09 12:55:58;;;;;;;0.68;0.43;;;4.50;99.90;;;;;;5068203;28;20201;-59
2022/03/09 12:58:49;;;;;;;0.70;0.60;;;4.50;99.90;;;;;;5067861;28;20658;-59
2022/03/09 13:01:20;;;;;;;0.82;0.55;;;4.30;99.90;;;;;;5066072;28;20200;-59
2022/03/09 13:04:01;;;;;;;0.70;0.60;;;4.40;99.90;;;;;;5061019;28;20267;-59
2022/03/09 13:06:33;;;;;;;0.50;0.50;;;4.30;99.90;;;;;;5062637;28;20284;-59
2022/03/09 13:09:06;;;;;;;1.20;0.47;;;4.30;99.90;;;;;;5060579;28;20211;-59
2022/03/09 13:11:40;;;;;;;0.70;0.70;;;4.20;99.90;;;;;;5060224;28;20225;-59
2022/03/09 13:14:16;;;;;;;0.50;0.50;;;4.20;99.90;;;;;;5063142;28;20267;-59
2022/03/09 13:16:47;;;;;;;1.45;0.75;;;4.10;99.90;;;;;;5064395;28;20204;-60
2022/03/09 13:19:18;;;;;;;1.20;0.60;;;4.10;99.90;;;;;;5063657;28;20194;-59
2022/03/09 13:21:51;;;;;;;0.60;0.60;;;4.10;99.90;;;;;;5063698;28;20198;-60
2022/03/09 13:24:28;;;;;;;4.70;0.90;;;4.00;99.90;;;;;;5063864;28;20232;-60